Webster, Iowa
Current Conditions -  °F | °C
As of 10:15 AM on Sunday 23 Nov 2014 (Local Time) from KOOA Reporting Station
Moderate Rain Moderate Rain  
Wind Chill: 46°   Ceiling: 600
Heat Index: 50°   Visibility: 3mi
Dew Point: 49°   Wind: 10mph
Humidity: 97%   Direction: 160°SSE
Pressure: 29.51"   Gusts: NA
Location:  41.44°N, 92.17°W
Report Text: KOOA 231615Z AUTO 16009KT 3SM RA BKN006 OVC012 10/10 A2951 RMK AO2 P0003 T00990095
Loading
Personal Weather Stations






























Interactive Weather Map New forecast layout! Learn more

10-Day Weather Forecast

Advertisements
Track Severe Weather on mobile